Time;durP1;ratioP1;P1;durP2;ratioP2;P2;SDS_P1;SDS_P2;PMS_P1;PMS_P2;Temp;Humidity;BMP_temperature;BMP_pressure;BME280_temperature;BME280_humidity;BME280_pressure;Samples;Min_cycle;Max_cycle;Signal;HPM_P1;HPM_P2
2022/04/03 00:01:47;;;;;;;37.63;34.50;;;1.80;99.90;;;;;;5033155;28;20456;-77
2022/04/03 00:04:14;;;;;;;36.77;33.50;;;1.80;99.90;;;;;;5032982;28;20893;-76
2022/04/03 00:06:40;;;;;;;36.70;33.23;;;1.80;99.90;;;;;;5033023;28;20591;-77
2022/04/03 00:09:07;;;;;;;36.60;33.40;;;1.70;99.90;;;;;;5032951;28;20457;-76
2022/04/03 00:11:34;;;;;;;36.53;33.17;;;1.70;99.90;;;;;;5033062;28;20456;-76
2022/04/03 00:14:00;;;;;;;35.97;32.40;;;1.80;99.90;;;;;;5032915;28;20958;-76
2022/04/03 00:16:27;;;;;;;34.23;31.40;;;1.80;99.90;;;;;;5032920;28;20457;-76
2022/04/03 00:18:55;;;;;;;37.37;33.97;;;1.80;99.90;;;;;;5032722;28;20449;-76
2022/04/03 00:21:22;;;;;;;36.83;33.37;;;1.70;99.90;;;;;;5032836;28;20872;-76
2022/04/03 00:23:49;;;;;;;35.13;32.17;;;1.70;99.90;;;;;;5032864;28;20488;-76
2022/04/03 00:26:16;;;;;;;34.03;30.83;;;1.70;99.90;;;;;;5032869;28;20837;-76
2022/04/03 00:28:43;;;;;;;33.50;30.50;;;1.70;99.90;;;;;;5032537;28;20445;-76
2022/04/03 00:31:10;;;;;;;33.33;30.43;;;1.70;99.90;;;;;;5032634;28;20575;-76
2022/04/03 00:33:37;;;;;;;31.13;28.60;;;1.60;99.90;;;;;;5032568;28;20851;-76
2022/04/03 00:36:06;;;;;;;34.90;31.73;;;1.60;99.90;;;;;;5032864;28;20449;-77
2022/04/03 00:38:32;;;;;;;31.90;28.87;;;1.60;99.90;;;;;;5032626;28;20453;-78
2022/04/03 00:41:01;;;;;;;33.00;30.07;;;1.60;99.90;;;;;;5032316;28;20463;-79
2022/04/03 00:43:27;;;;;;;34.03;28.83;;;1.60;99.90;;;;;;5032137;28;20484;-79
2022/04/03 00:45:55;;;;;;;31.87;28.87;;;1.50;99.90;;;;;;5032514;28;20534;-78
2022/04/03 00:48:22;;;;;;;32.30;29.30;;;1.50;99.90;;;;;;5032346;28;20480;-76
2022/04/03 00:50:49;;;;;;;31.70;28.80;;;1.50;99.90;;;;;;5031116;28;20449;-76
2022/04/03 00:53:17;;;;;;;32.00;28.83;;;1.60;99.90;;;;;;5032329;28;20452;-76
2022/04/03 00:55:44;;;;;;;31.77;28.67;;;1.60;99.90;;;;;;5032094;28;20859;-77
2022/04/03 00:58:11;;;;;;;31.40;28.63;;;1.60;99.90;;;;;;5032281;28;20449;-77
2022/04/03 01:00:38;;;;;;;32.17;29.27;;;1.60;99.90;;;;;;5032067;28;20939;-77
2022/04/03 01:03:05;;;;;;;34.17;30.83;;;1.60;99.90;;;;;;5032550;28;20450;-77
2022/04/03 01:05:33;;;;;;;33.30;30.30;;;1.70;99.90;;;;;;5031786;28;20484;-78
2022/04/03 01:08:00;;;;;;;33.13;30.27;;;1.70;99.90;;;;;;5032004;28;20449;-77
2022/04/03 01:10:28;;;;;;;34.77;31.37;;;1.70;99.90;;;;;;5032092;28;20511;-77
2022/04/03 01:12:55;;;;;;;33.80;30.73;;;1.70;99.90;;;;;;5031742;28;20453;-76
2022/04/03 01:15:21;;;;;;;34.90;31.67;;;1.70;99.90;;;;;;5031932;28;20449;-76
2022/04/03 01:17:48;;;;;;;35.20;31.70;;;1.60;99.90;;;;;;5031939;28;20456;-77
2022/04/03 01:20:15;;;;;;;35.00;31.80;;;1.60;99.90;;;;;;5031920;28;20463;-77
2022/04/03 01:22:44;;;;;;;33.93;30.53;;;1.70;99.90;;;;;;5031725;28;21014;-77
2022/04/03 01:25:14;;;;;;;37.13;33.53;;;1.70;99.90;;;;;;5034325;28;20493;-88
2022/04/03 01:27:41;;;;;;;36.07;32.83;;;1.70;99.90;;;;;;5034569;28;20967;-85
2022/04/03 01:30:10;;;;;;;36.90;33.43;;;1.70;99.90;;;;;;5032722;28;20450;-77
2022/04/03 01:32:37;;;;;;;34.40;31.40;;;1.70;99.90;;;;;;5031606;28;20493;-79
2022/04/03 01:35:05;;;;;;;40.17;33.83;;;1.70;99.90;;;;;;5031722;28;20456;-79
2022/04/03 01:37:32;;;;;;;38.03;34.63;;;1.80;99.90;;;;;;5031423;28;20445;-78
2022/04/03 01:39:59;;;;;;;39.60;35.70;;;1.70;99.90;;;;;;5031237;28;20445;-78
2022/04/03 01:42:27;;;;;;;36.90;33.27;;;1.70;99.90;;;;;;5031272;28;20520;-76
2022/04/03 01:44:53;;;;;;;37.10;33.60;;;1.70;99.90;;;;;;5030995;28;20492;-77
2022/04/03 01:47:20;;;;;;;37.57;33.80;;;1.70;99.90;;;;;;5031729;28;20488;-79
2022/04/03 01:49:50;;;;;;;37.30;33.60;;;1.70;99.90;;;;;;5031257;28;20466;-77
2022/04/03 01:52:17;;;;;;;39.17;35.27;;;1.70;99.90;;;;;;5031451;28;20453;-78
2022/04/03 01:54:44;;;;;;;35.67;32.40;;;1.80;99.90;;;;;;5030838;28;20449;-78
2022/04/03 01:57:10;;;;;;;37.97;34.50;;;1.80;99.90;;;;;;5031416;28;20456;-79
2022/04/03 01:59:38;;;;;;;35.50;32.20;;;1.80;99.90;;;;;;5030929;28;20449;-78
2022/04/03 02:02:05;;;;;;;38.40;34.60;;;1.80;99.90;;;;;;5030940;28;20460;-80
2022/04/03 02:04:32;;;;;;;36.80;33.47;;;1.90;99.90;;;;;;5030952;28;20484;-80
2022/04/03 02:06:59;;;;;;;34.70;31.73;;;1.90;99.90;;;;;;5031576;28;20551;-80
2022/04/03 02:09:26;;;;;;;33.57;30.67;;;1.80;99.90;;;;;;5031468;28;20852;-85
2022/04/03 02:11:54;;;;;;;37.93;34.10;;;1.80;99.90;;;;;;5033029;28;20450;-85
2022/04/03 02:14:24;;;;;;;36.57;32.60;;;1.80;99.90;;;;;;5036154;28;20441;-80
2022/04/03 02:16:54;;;;;;;35.10;31.77;;;1.80;99.90;;;;;;5032483;28;20507;-78
2022/04/03 02:19:21;;;;;;;33.03;29.97;;;1.80;99.90;;;;;;5031033;28;20488;-78
2022/04/03 02:21:47;;;;;;;34.60;31.53;;;1.80;99.90;;;;;;5031001;28;20451;-80
2022/04/03 02:24:14;;;;;;;34.23;31.10;;;1.80;99.90;;;;;;5030701;28;20499;-80
2022/04/03 02:26:41;;;;;;;34.07;30.67;;;1.80;99.90;;;;;;5030795;28;20649;-81
2022/04/03 02:29:08;;;;;;;36.57;33.07;;;1.80;99.90;;;;;;5030646;28;20455;-79
2022/04/03 02:31:36;;;;;;;33.17;30.10;;;1.80;99.90;;;;;;5030640;28;20458;-78
2022/04/03 02:34:04;;;;;;;36.67;33.10;;;1.80;99.90;;;;;;5030866;28;20464;-78
2022/04/03 02:36:31;;;;;;;34.70;31.53;;;1.80;99.90;;;;;;5030890;28;20449;-81
2022/04/03 02:38:58;;;;;;;36.33;33.00;;;1.90;99.90;;;;;;5030727;28;20451;-80
2022/04/03 02:41:25;;;;;;;35.23;31.87;;;1.90;99.90;;;;;;5030515;28;20531;-81
2022/04/03 02:43:52;;;;;;;37.23;33.80;;;1.90;99.90;;;;;;5030450;28;20897;-80
2022/04/03 02:46:18;;;;;;;33.73;30.83;;;1.90;99.90;;;;;;5030595;28;20993;-80
2022/04/03 02:48:45;;;;;;;37.17;33.77;;;1.90;99.90;;;;;;5030398;28;20448;-80
2022/04/03 02:51:13;;;;;;;35.87;32.80;;;1.90;99.90;;;;;;5030613;28;20525;-80
2022/04/03 02:53:40;;;;;;;37.30;34.13;;;1.90;99.90;;;;;;5030288;28;20857;-79
2022/04/03 02:56:07;;;;;;;37.43;34.20;;;1.90;99.90;;;;;;5030622;28;20496;-79
2022/04/03 02:58:33;;;;;;;35.20;32.10;;;1.90;99.90;;;;;;5030665;28;20809;-79
2022/04/03 03:01:00;;;;;;;38.40;34.50;;;1.90;99.90;;;;;;5030434;28;20472;-79
2022/04/03 03:03:27;;;;;;;36.93;33.30;;;1.90;99.90;;;;;;5030319;28;20960;-78
2022/04/03 03:05:54;;;;;;;37.23;33.43;;;1.90;99.90;;;;;;5029968;28;20495;-78
2022/04/03 03:08:22;;;;;;;35.87;32.70;;;1.90;99.90;;;;;;5030438;28;20472;-79
2022/04/03 03:10:49;;;;;;;35.60;32.50;;;1.90;99.90;;;;;;5030406;28;20453;-79
2022/04/03 03:13:15;;;;;;;38.77;35.13;;;1.90;99.90;;;;;;5031659;28;20457;-78
2022/04/03 03:15:43;;;;;;;36.77;33.47;;;1.90;99.90;;;;;;5033852;28;20469;-78
2022/04/03 03:18:09;;;;;;;36.03;32.70;;;1.90;99.90;;;;;;5033920;28;20455;-79
2022/04/03 03:20:36;;;;;;;36.53;33.00;;;1.90;99.90;;;;;;5034234;28;20444;-79
2022/04/03 03:23:03;;;;;;;38.80;33.50;;;1.90;99.90;;;;;;5034080;28;20447;-79
2022/04/03 03:25:31;;;;;;;34.63;31.60;;;2.00;99.90;;;;;;5033688;28;20484;-79
2022/04/03 03:27:58;;;;;;;34.83;31.67;;;1.90;99.90;;;;;;5033859;28;20461;-80
2022/04/03 03:30:25;;;;;;;34.50;31.33;;;1.90;99.90;;;;;;5033846;28;20925;-79
2022/04/03 03:32:51;;;;;;;35.60;32.33;;;1.90;99.90;;;;;;5033982;28;20462;-79
2022/04/03 03:35:18;;;;;;;34.77;31.77;;;1.90;99.90;;;;;;5033591;28;20454;-79
2022/04/03 03:37:45;;;;;;;36.90;33.70;;;1.90;99.90;;;;;;5033467;28;21042;-78
2022/04/03 03:40:14;;;;;;;36.27;32.90;;;1.90;99.90;;;;;;5033500;28;20461;-77
2022/04/03 03:42:43;;;;;;;36.47;33.33;;;1.90;99.90;;;;;;5033307;28;20635;-78
2022/04/03 03:45:11;;;;;;;35.70;32.60;;;1.80;99.90;;;;;;5031435;28;20485;-77
2022/04/03 03:47:37;;;;;;;34.63;31.53;;;1.90;99.90;;;;;;5032502;28;20456;-78
2022/04/03 03:50:05;;;;;;;32.20;29.50;;;1.90;99.90;;;;;;5032149;28;20449;-79
2022/04/03 03:52:32;;;;;;;34.37;31.27;;;1.90;99.90;;;;;;5032836;28;20465;-78
2022/04/03 03:54:59;;;;;;;34.93;31.30;;;1.90;99.90;;;;;;5032645;28;20452;-78
2022/04/03 03:57:26;;;;;;;35.37;31.97;;;1.90;99.90;;;;;;5032544;28;20458;-78
2022/04/03 03:59:54;;;;;;;33.70;30.67;;;1.80;99.90;;;;;;5032777;28;20459;-78
2022/04/03 04:02:20;;;;;;;34.10;31.00;;;1.80;99.90;;;;;;5032850;28;20453;-77
2022/04/03 04:04:47;;;;;;;32.07;29.23;;;1.80;99.90;;;;;;5032639;28;20499;-78
2022/04/03 04:07:14;;;;;;;31.57;28.60;;;1.80;99.90;;;;;;5032598;28;20453;-78
2022/04/03 04:09:41;;;;;;;33.30;29.90;;;1.70;99.90;;;;;;5032327;28;20453;-78
2022/04/03 04:12:10;;;;;;;30.70;28.07;;;1.70;99.90;;;;;;5032280;28;20457;-77
2022/04/03 04:14:38;;;;;;;32.43;29.23;;;1.80;99.90;;;;;;5032504;28;20479;-78
2022/04/03 04:17:07;;;;;;;33.67;30.50;;;1.80;99.90;;;;;;5032779;28;20484;-77
2022/04/03 04:19:34;;;;;;;32.63;29.83;;;1.80;99.90;;;;;;5032471;28;20812;-76
2022/04/03 04:22:01;;;;;;;30.97;28.40;;;1.80;99.90;;;;;;5032427;28;20454;-77
2022/04/03 04:24:27;;;;;;;32.50;29.40;;;1.80;99.90;;;;;;5032187;28;20584;-80
2022/04/03 04:26:55;;;;;;;31.67;28.87;;;1.80;99.90;;;;;;5032938;28;20461;-83
2022/04/03 04:29:22;;;;;;;30.57;27.73;;;1.80;99.90;;;;;;5032843;28;20453;-82
2022/04/03 04:31:49;;;;;;;29.10;26.60;;;1.80;99.90;;;;;;5032804;28;20447;-82
2022/04/03 04:34:17;;;;;;;29.87;27.17;;;1.80;99.90;;;;;;5032662;28;20449;-82
2022/04/03 04:36:44;;;;;;;28.90;26.40;;;1.70;99.90;;;;;;5032730;28;20800;-84
2022/04/03 04:39:10;;;;;;;30.43;27.67;;;1.70;99.90;;;;;;5032801;28;20602;-84
2022/04/03 04:41:37;;;;;;;29.43;26.93;;;1.70;99.90;;;;;;5032573;28;20474;-85
2022/04/03 04:44:04;;;;;;;27.13;24.83;;;1.70;99.90;;;;;;5032232;28;20492;-81
2022/04/03 04:46:31;;;;;;;28.57;26.10;;;1.80;99.90;;;;;;5032222;28;20491;-82
2022/04/03 04:48:57;;;;;;;30.20;27.30;;;1.80;99.90;;;;;;5031909;28;20456;-81
2022/04/03 04:51:26;;;;;;;31.80;27.17;;;1.80;99.90;;;;;;5032283;28;20488;-81
2022/04/03 04:53:52;;;;;;;32.20;28.90;;;1.80;99.90;;;;;;5032084;28;20452;-81
2022/04/03 04:56:19;;;;;;;29.63;26.50;;;1.80;99.90;;;;;;5032430;28;20453;-81
2022/04/03 04:58:46;;;;;;;29.67;27.03;;;1.80;99.90;;;;;;5032185;28;20495;-79
2022/04/03 05:01:13;;;;;;;27.73;25.43;;;1.90;99.90;;;;;;5031767;28;20951;-80
2022/04/03 05:03:40;;;;;;;28.67;25.97;;;1.80;99.90;;;;;;5032061;28;20562;-80
2022/04/03 05:06:07;;;;;;;30.30;27.67;;;1.80;99.90;;;;;;5032114;28;21075;-81
2022/04/03 05:08:35;;;;;;;27.00;24.80;;;1.90;99.90;;;;;;5031937;28;20512;-82
2022/04/03 05:11:02;;;;;;;31.00;28.27;;;1.90;99.90;;;;;;5032041;28;20451;-82
2022/04/03 05:13:29;;;;;;;29.00;26.60;;;1.90;99.90;;;;;;5031789;28;20461;-80
2022/04/03 05:15:56;;;;;;;29.63;27.03;;;1.90;99.90;;;;;;5031770;28;20457;-81
2022/04/03 05:18:23;;;;;;;28.20;25.70;;;1.90;99.90;;;;;;5031771;28;20449;-83
2022/04/03 05:20:50;;;;;;;30.40;27.67;;;1.90;99.90;;;;;;5031885;28;20458;-82
2022/04/03 05:23:17;;;;;;;28.87;26.37;;;1.90;99.90;;;;;;5031665;28;20935;-80
2022/04/03 05:25:45;;;;;;;29.77;27.43;;;2.00;99.90;;;;;;5031395;28;20488;-81
2022/04/03 05:28:12;;;;;;;30.87;28.23;;;2.00;99.90;;;;;;5031584;28;20462;-80
2022/04/03 05:30:38;;;;;;;31.23;28.50;;;2.00;99.90;;;;;;5031439;28;20461;-80
2022/04/03 05:33:05;;;;;;;32.17;29.77;;;2.00;99.90;;;;;;5031693;28;20531;-80
2022/04/03 05:35:32;;;;;;;31.23;28.73;;;2.00;99.90;;;;;;5030807;28;20451;-81
2022/04/03 05:37:59;;;;;;;34.10;31.00;;;2.00;99.90;;;;;;5031067;28;20449;-81
2022/04/03 05:40:26;;;;;;;33.70;30.80;;;2.10;99.90;;;;;;5031357;28;20459;-81
2022/04/03 05:42:54;;;;;;;35.50;32.60;;;2.00;99.90;;;;;;5031114;28;20497;-81
2022/04/03 05:45:20;;;;;;;33.47;30.70;;;2.10;99.90;;;;;;5031265;28;20524;-81
2022/04/03 05:47:47;;;;;;;34.23;31.43;;;2.10;99.90;;;;;;5031169;28;20480;-80
2022/04/03 05:50:15;;;;;;;32.20;29.80;;;2.00;99.90;;;;;;5031389;28;20461;-81
2022/04/03 05:52:43;;;;;;;34.57;31.67;;;2.10;99.90;;;;;;5031250;28;20446;-81
2022/04/03 05:55:11;;;;;;;33.43;30.83;;;2.10;99.90;;;;;;5031093;28;20453;-80
2022/04/03 05:57:38;;;;;;;33.90;31.27;;;2.20;99.90;;;;;;5031213;28;20449;-80
2022/04/03 06:00:12;;;;;;;33.60;31.10;;;2.20;99.90;;;;;;5031019;28;20460;-80
2022/04/03 06:02:49;;;;;;;33.47;30.87;;;2.30;99.90;;;;;;5031069;28;20483;-79
2022/04/03 06:05:17;;;;;;;34.27;31.70;;;2.40;99.90;;;;;;5030814;28;20448;-81
2022/04/03 06:07:44;;;;;;;35.07;32.40;;;2.40;99.90;;;;;;5030647;28;20456;-79
2022/04/03 06:10:10;;;;;;;32.50;30.00;;;2.40;99.90;;;;;;5030724;28;20451;-76
2022/04/03 06:12:37;;;;;;;34.63;32.23;;;2.50;99.90;;;;;;5030813;28;20457;-76
2022/04/03 06:15:06;;;;;;;33.17;30.80;;;2.60;99.90;;;;;;5031035;28;20568;-76
2022/04/03 06:17:32;;;;;;;34.80;32.00;;;2.70;99.90;;;;;;5030794;28;20470;-77
2022/04/03 06:19:59;;;;;;;32.30;30.20;;;2.80;99.90;;;;;;5030791;28;20449;-75
2022/04/03 06:22:26;;;;;;;30.97;28.63;;;2.90;99.90;;;;;;5030539;28;20976;-77
2022/04/03 06:24:52;;;;;;;32.23;30.13;;;3.10;99.90;;;;;;5030581;28;20460;-77
2022/04/03 06:27:19;;;;;;;32.53;30.23;;;3.20;99.90;;;;;;5030879;28;20515;-77
2022/04/03 06:29:46;;;;;;;34.07;31.57;;;3.40;99.90;;;;;;5030566;28;20487;-77
2022/04/03 06:32:14;;;;;;;32.53;30.43;;;3.40;99.90;;;;;;5030732;28;20884;-77
2022/04/03 06:34:41;;;;;;;31.83;29.67;;;3.60;99.90;;;;;;5030485;28;21236;-74
2022/04/03 06:37:07;;;;;;;30.50;28.47;;;3.80;99.90;;;;;;5030527;28;20857;-75
2022/04/03 06:39:35;;;;;;;30.10;28.20;;;3.70;99.90;;;;;;5030704;28;20453;-75
2022/04/03 06:42:03;;;;;;;30.03;27.97;;;3.80;99.90;;;;;;5030463;28;20516;-76
2022/04/03 06:44:30;;;;;;;28.73;27.03;;;3.90;99.90;;;;;;5030083;28;20484;-75
2022/04/03 06:46:57;;;;;;;29.70;27.70;;;4.00;99.90;;;;;;5031192;28;21252;-76
2022/04/03 06:49:25;;;;;;;28.37;26.77;;;4.10;99.90;;;;;;5034357;28;20450;-75
2022/04/03 06:51:52;;;;;;;26.87;25.07;;;4.40;99.90;;;;;;5034540;28;20449;-75
2022/04/03 06:54:18;;;;;;;27.00;25.03;;;4.30;99.90;;;;;;5034580;28;20449;-77
2022/04/03 06:56:45;;;;;;;27.50;25.50;;;4.20;99.90;;;;;;5034509;28;20449;-77
2022/04/03 06:59:12;;;;;;;25.63;24.03;;;4.60;99.90;;;;;;5034270;28;20453;-77
2022/04/03 07:01:38;;;;;;;23.07;21.67;;;5.30;99.90;;;;;;5034128;28;20449;-78
2022/04/03 07:04:05;;;;;;;20.67;19.17;;;5.90;99.90;;;;;;5034556;28;20456;-78
2022/04/03 07:06:33;;;;;;;18.43;16.77;;;6.20;99.90;;;;;;5034216;28;20488;-77
2022/04/03 07:09:00;;;;;;;17.40;16.30;;;6.80;99.90;;;;;;5034215;28;20459;-80
2022/04/03 07:11:26;;;;;;;18.23;17.03;;;6.90;99.90;;;;;;5033800;28;20451;-79
2022/04/03 07:13:53;;;;;;;18.77;17.47;;;7.70;99.90;;;;;;5034250;28;20468;-79
2022/04/03 07:16:20;;;;;;;17.17;15.97;;;8.70;99.90;;;;;;5034176;28;20445;-78
2022/04/03 07:18:46;;;;;;;15.73;14.73;;;9.30;99.90;;;;;;5033518;28;20452;-78
2022/04/03 07:21:13;;;;;;;17.10;16.10;;;9.70;99.90;;;;;;5033247;28;20452;-80
2022/04/03 07:23:42;;;;;;;16.53;15.53;;;9.80;99.90;;;;;;5033156;28;20453;-81
2022/04/03 07:26:09;;;;;;;15.77;14.80;;;9.60;99.90;;;;;;5033231;28;20485;-83
2022/04/03 07:28:36;;;;;;;15.97;14.80;;;9.50;99.90;;;;;;5033532;28;20445;-84
2022/04/03 07:31:03;;;;;;;15.53;14.53;;;9.50;99.90;;;;;;5033577;28;20441;-85
2022/04/03 07:33:29;;;;;;;16.43;15.43;;;9.30;99.90;;;;;;5033686;28;20457;-83
2022/04/03 07:35:56;;;;;;;16.37;15.23;;;8.20;99.90;;;;;;5033247;28;20448;-86
2022/04/03 07:38:23;;;;;;;16.93;15.73;;;7.60;99.90;;;;;;5033314;28;20451;-83
2022/04/03 07:40:51;;;;;;;15.53;14.43;;;7.50;99.90;;;;;;5032990;28;20452;-82
2022/04/03 07:43:18;;;;;;;17.60;16.17;;;7.20;99.90;;;;;;5033254;28;20495;-83
2022/04/03 07:45:45;;;;;;;17.73;16.47;;;7.10;99.90;;;;;;5033190;28;20448;-83
2022/04/03 07:48:12;;;;;;;17.37;16.27;;;7.30;99.90;;;;;;5033253;28;20444;-85
2022/04/03 07:50:39;;;;;;;16.17;14.80;;;7.40;99.90;;;;;;5033045;28;20444;-85
2022/04/03 07:53:06;;;;;;;17.60;16.30;;;7.30;99.90;;;;;;5033178;28;20539;-83
2022/04/03 07:55:33;;;;;;;16.73;15.60;;;7.50;99.90;;;;;;5033114;28;20451;-84
2022/04/03 07:58:01;;;;;;;17.70;16.47;;;7.00;99.90;;;;;;5032571;28;20448;-82
2022/04/03 08:00:28;;;;;;;16.20;15.20;;;7.00;99.90;;;;;;5032160;28;20450;-82
2022/04/03 08:02:55;;;;;;;16.50;15.30;;;7.20;99.90;;;;;;5032510;28;20445;-82
2022/04/03 08:05:21;;;;;;;16.23;15.23;;;6.90;99.90;;;;;;5030551;28;20443;-83
2022/04/03 08:07:49;;;;;;;15.70;14.60;;;6.70;99.90;;;;;;5032868;28;20485;-86
2022/04/03 08:10:18;;;;;;;15.43;14.50;;;6.80;99.90;;;;;;5032740;28;20877;-84
2022/04/03 08:12:47;;;;;;;16.03;15.03;;;6.70;99.90;;;;;;5033086;28;20448;-84
2022/04/03 08:15:17;;;;;;;17.10;15.90;;;6.50;99.90;;;;;;5032779;28;20454;-85
2022/04/03 08:17:44;;;;;;;16.10;15.07;;;6.50;99.90;;;;;;5032560;28;20453;-83
2022/04/03 08:20:16;;;;;;;14.90;14.00;;;6.40;99.90;;;;;;5032888;28;20844;-84
2022/04/03 08:22:43;;;;;;;14.67;13.60;;;6.10;99.90;;;;;;5032669;28;20453;-83
2022/04/03 08:25:11;;;;;;;14.37;13.27;;;5.80;99.90;;;;;;5032441;28;20815;-80
2022/04/03 08:27:42;;;;;;;14.53;13.53;;;6.20;99.90;;;;;;5033026;28;20483;-88
2022/04/03 08:30:10;;;;;;;14.50;13.47;;;6.10;99.90;;;;;;5033038;28;20447;-89
2022/04/03 08:32:38;;;;;;;14.10;13.10;;;6.20;99.90;;;;;;5035019;28;20479;-86
2022/04/03 08:35:07;;;;;;;13.77;12.90;;;6.20;99.90;;;;;;5033337;28;20458;-85
2022/04/03 08:37:33;;;;;;;16.00;14.83;;;6.20;99.90;;;;;;5033280;28;20497;-84
2022/04/03 08:40:00;;;;;;;13.00;12.30;;;6.30;99.90;;;;;;5032266;28;20457;-85
2022/04/03 08:42:28;;;;;;;14.23;13.27;;;6.50;99.90;;;;;;5032356;28;20475;-84
2022/04/03 08:44:54;;;;;;;14.40;13.50;;;6.80;99.90;;;;;;5032277;28;21721;-84
2022/04/03 08:47:23;;;;;;;13.70;12.80;;;7.50;99.90;;;;;;5032227;28;20503;-84
2022/04/03 08:49:51;;;;;;;13.23;12.53;;;9.40;99.00;;;;;;5032499;28;20448;-84
2022/04/03 08:52:18;;;;;;;13.77;12.97;;;9.10;97.20;;;;;;5031874;28;20446;-84
2022/04/03 08:54:44;;;;;;;13.67;12.97;;;10.40;99.90;;;;;;5031599;28;20441;-82
2022/04/03 08:57:11;;;;;;;14.60;13.80;;;12.10;94.70;;;;;;5031598;28;20433;-81
2022/04/03 08:59:38;;;;;;;14.67;13.67;;;12.90;89.50;;;;;;5031373;28;20455;-79
2022/04/03 09:02:05;;;;;;;14.20;13.23;;;13.70;85.50;;;;;;5031675;28;20943;-81
2022/04/03 09:04:32;;;;;;;13.30;12.60;;;13.30;80.90;;;;;;5031269;28;20441;-82
2022/04/03 09:07:01;;;;;;;14.27;13.37;;;12.10;79.30;;;;;;5031248;28;20496;-83
2022/04/03 09:09:29;;;;;;;13.27;12.57;;;11.60;86.50;;;;;;5031262;28;20495;-80
2022/04/03 09:12:12;;;;;;;12.40;11.80;;;11.10;84.70;;;;;;5030148;28;20441;-82
2022/04/03 09:14:47;;;;;;;11.90;11.30;;;10.00;85.30;;;;;;5030127;28;20500;-81
2022/04/03 09:17:16;;;;;;;13.23;12.43;;;9.40;90.50;;;;;;5028982;28;20465;-80
2022/04/03 09:19:43;;;;;;;13.00;12.10;;;9.20;92.10;;;;;;5031271;28;20449;-80
2022/04/03 09:22:12;;;;;;;12.87;12.20;;;8.80;92.30;;;;;;5031340;28;20444;-78
2022/04/03 09:24:47;;;;;;;13.40;12.70;;;8.40;92.70;;;;;;5031134;28;20441;-78
2022/04/03 09:27:14;;;;;;;13.07;12.27;;;7.90;93.90;;;;;;5028962;28;20849;-78
2022/04/03 09:29:45;;;;;;;13.40;12.60;;;7.30;93.50;;;;;;5031185;28;20934;-78
2022/04/03 09:32:12;;;;;;;13.30;12.40;;;7.10;94.70;;;;;;5028667;28;20448;-81
2022/04/03 09:34:39;;;;;;;12.83;12.13;;;7.30;96.70;;;;;;5030445;28;20483;-80
2022/04/03 09:37:06;;;;;;;12.43;11.83;;;7.10;94.30;;;;;;5030061;28;20459;-80
2022/04/03 09:39:34;;;;;;;12.83;12.03;;;6.70;96.30;;;;;;5030957;28;20444;-79
2022/04/03 09:42:03;;;;;;;13.57;12.73;;;6.60;99.60;;;;;;5030732;28;20468;-80
2022/04/03 09:44:32;;;;;;;12.67;11.87;;;6.40;99.50;;;;;;5029998;28;20475;-79
2022/04/03 09:47:20;;;;;;;13.73;12.47;;;6.40;99.90;;;;;;5030770;28;20508;-79
2022/04/03 09:49:52;;;;;;;13.50;12.67;;;6.30;99.90;;;;;;5030837;28;20446;-79
2022/04/03 09:52:39;;;;;;;14.37;13.10;;;6.10;99.90;;;;;;5030582;28;20452;-78
2022/04/03 09:55:18;;;;;;;13.40;12.60;;;6.20;99.90;;;;;;5030256;28;20502;-78
2022/04/03 09:57:45;;;;;;;11.90;11.30;;;6.10;99.90;;;;;;5030648;28;20931;-78
2022/04/03 10:00:14;;;;;;;13.50;12.60;;;6.10;99.90;;;;;;5030147;28;21208;-77
2022/04/03 10:02:47;;;;;;;13.33;12.30;;;6.10;99.90;;;;;;5030791;28;20448;-77
2022/04/03 10:05:15;;;;;;;13.67;12.77;;;6.00;99.90;;;;;;5028175;28;20529;-77
2022/04/03 10:07:43;;;;;;;13.07;12.27;;;5.80;99.90;;;;;;5030301;28;20484;-76
2022/04/03 10:10:11;;;;;;;12.33;11.73;;;5.90;99.90;;;;;;5027568;28;20453;-77
2022/04/03 10:12:39;;;;;;;15.30;14.30;;;5.80;99.90;;;;;;5030106;28;20445;-77
2022/04/03 10:15:07;;;;;;;13.07;12.23;;;6.00;99.90;;;;;;5030346;28;20477;-77
2022/04/03 10:17:34;;;;;;;11.50;10.90;;;6.30;99.90;;;;;;5030589;28;20449;-77
2022/04/03 10:20:01;;;;;;;12.80;11.90;;;6.00;99.90;;;;;;5030295;28;20969;-79
2022/04/03 10:22:32;;;;;;;12.43;11.53;;;6.10;99.90;;;;;;5029850;28;20476;-77
2022/04/03 10:25:04;;;;;;;10.20;9.70;;;6.30;99.90;;;;;;5029935;28;20498;-77
2022/04/03 10:27:36;;;;;;;10.77;10.23;;;6.60;99.90;;;;;;5027487;28;20484;-77
2022/04/03 10:30:03;;;;;;;12.83;11.93;;;6.80;99.90;;;;;;5030307;28;20445;-77
2022/04/03 10:32:33;;;;;;;12.20;11.30;;;6.90;99.90;;;;;;5027411;28;20447;-76
2022/04/03 10:35:04;;;;;;;11.80;11.10;;;6.90;99.90;;;;;;5029828;28;20487;-76
2022/04/03 10:37:33;;;;;;;10.90;10.30;;;6.60;99.30;;;;;;5027513;28;20439;-77
2022/04/03 10:40:06;;;;;;;11.53;10.93;;;6.30;99.30;;;;;;5029960;28;20445;-77
2022/04/03 10:42:48;;;;;;;11.03;10.33;;;5.80;99.90;;;;;;5027921;28;20468;-77
2022/04/03 10:45:26;;;;;;;12.57;11.77;;;5.40;99.90;;;;;;5027730;28;20439;-77
2022/04/03 10:48:18;;;;;;;12.13;11.43;;;5.10;99.90;;;;;;5030067;28;20498;-76
2022/04/03 10:51:00;;;;;;;13.40;12.60;;;4.80;99.90;;;;;;5030324;28;20457;-77
2022/04/03 10:53:28;;;;;;;12.47;11.57;;;4.70;99.90;;;;;;5030441;28;20453;-77
2022/04/03 10:55:56;;;;;;;11.20;10.50;;;5.00;99.90;;;;;;5030158;28;20463;-76
2022/04/03 10:58:23;;;;;;;12.83;12.10;;;5.30;99.90;;;;;;5030409;28;20470;-76
2022/04/03 11:00:52;;;;;;;11.03;10.40;;;5.60;99.90;;;;;;5030238;28;20460;-76
2022/04/03 11:03:35;;;;;;;12.20;11.30;;;6.00;99.90;;;;;;5030108;28;20457;-76
2022/04/03 11:06:26;;;;;;;12.90;12.00;;;6.20;99.90;;;;;;5030294;28;20449;-77
2022/04/03 11:09:12;;;;;;;10.63;10.00;;;6.40;99.90;;;;;;5030102;28;20486;-76
2022/04/03 11:11:58;;;;;;;11.80;11.10;;;6.70;99.90;;;;;;5030083;28;20454;-76
2022/04/03 11:14:55;;;;;;;12.17;11.37;;;7.20;99.90;;;;;;5030249;28;20448;-74
2022/04/03 11:17:49;;;;;;;11.40;10.70;;;7.70;99.90;;;;;;5030274;28;20455;-77
2022/04/03 11:20:39;;;;;;;11.23;10.57;;;8.30;99.60;;;;;;5030121;28;20439;-77
2022/04/03 11:23:09;;;;;;;12.23;11.43;;;8.20;97.40;;;;;;5030176;28;20792;-77
2022/04/03 11:25:36;;;;;;;11.40;10.80;;;8.30;99.80;;;;;;5030355;28;20448;-77
2022/04/03 11:28:03;;;;;;;11.53;10.93;;;8.70;98.30;;;;;;5030088;28;20481;-77
2022/04/03 11:30:30;;;;;;;11.40;10.80;;;9.50;97.60;;;;;;5029960;28;20445;-77
2022/04/03 11:32:58;;;;;;;11.77;11.17;;;10.00;95.00;;;;;;5029961;28;20489;-77
2022/04/03 11:35:35;;;;;;;12.33;11.77;;;11.30;92.80;;;;;;5033196;28;20445;-77
2022/04/03 11:38:02;;;;;;;12.00;11.40;;;12.80;88.60;;;;;;5033772;28;20460;-76
2022/04/03 11:40:30;;;;;;;12.60;11.90;;;13.40;80.60;;;;;;5033538;28;20958;-77
2022/04/03 11:43:12;;;;;;;11.63;10.77;;;13.40;79.40;;;;;;5033127;28;20571;-76
2022/04/03 11:45:39;;;;;;;11.23;10.63;;;12.10;77.80;;;;;;5033273;28;20452;-77
2022/04/03 11:48:17;;;;;;;11.67;10.97;;;11.10;79.50;;;;;;5033435;28;20529;-76
2022/04/03 11:50:44;;;;;;;12.27;11.37;;;11.10;79.40;;;;;;5033249;28;20524;-77
2022/04/03 11:53:11;;;;;;;11.17;10.57;;;11.30;83.10;;;;;;5033354;28;20539;-77
2022/04/03 11:55:39;;;;;;;12.37;11.67;;;11.70;79.80;;;;;;5033263;28;20448;-76
2022/04/03 11:58:06;;;;;;;11.73;11.13;;;11.90;80.30;;;;;;5033226;28;20449;-76
2022/04/03 12:00:34;;;;;;;12.40;11.77;;;11.50;81.50;;;;;;5032990;28;20437;-76
2022/04/03 12:03:03;;;;;;;11.53;10.93;;;10.90;79.10;;;;;;5032865;28;20441;-75
2022/04/03 12:05:30;;;;;;;11.80;11.10;;;9.90;85.80;;;;;;5030257;28;20449;-73
2022/04/03 12:07:56;;;;;;;11.53;10.90;;;9.30;83.60;;;;;;5032452;28;20487;-76
2022/04/03 12:10:24;;;;;;;11.20;10.40;;;9.10;88.20;;;;;;5032695;28;21215;-76
2022/04/03 12:12:53;;;;;;;11.93;11.07;;;9.20;89.80;;;;;;5032542;28;20456;-77
2022/04/03 12:15:21;;;;;;;11.63;10.83;;;8.60;87.40;;;;;;5032624;28;20441;-76
2022/04/03 12:17:55;;;;;;;11.00;10.50;;;8.60;89.70;;;;;;5030161;28;20448;-76
2022/04/03 12:20:22;;;;;;;11.93;11.20;;;8.40;88.80;;;;;;5032341;28;20452;-77
2022/04/03 12:22:50;;;;;;;10.90;10.30;;;8.40;88.10;;;;;;5032288;28;20452;-76
2022/04/03 12:25:17;;;;;;;10.80;10.30;;;8.80;90.10;;;;;;5032382;28;20823;-77
2022/04/03 12:27:44;;;;;;;11.40;10.80;;;8.80;88.20;;;;;;5031818;28;21077;-77
2022/04/03 12:30:14;;;;;;;11.67;11.17;;;8.50;89.30;;;;;;5032083;28;20457;-76
2022/04/03 12:32:41;;;;;;;10.63;10.03;;;8.70;86.70;;;;;;5032306;28;20555;-81
2022/04/03 12:35:09;;;;;;;11.20;10.60;;;8.90;82.00;;;;;;5032456;28;20493;-74
2022/04/03 12:37:37;;;;;;;12.37;11.60;;;8.60;84.70;;;;;;5032489;28;20535;-74
2022/04/03 12:40:06;;;;;;;12.93;11.97;;;8.50;84.00;;;;;;5032676;28;20453;-77
2022/04/03 12:42:34;;;;;;;11.03;10.30;;;7.50;88.30;;;;;;5032509;28;20491;-77